createdAt,value
2022-07-29T00:02:00.005Z,14.30
2022-07-29T00:04:27.673Z,14.30
2022-07-29T00:06:55.288Z,14.30
2022-07-29T00:09:23.013Z,14.30
2022-07-29T00:11:50.737Z,14.20
2022-07-29T00:14:18.770Z,14.20
2022-07-29T00:16:46.595Z,14.20
2022-07-29T00:19:14.326Z,14.20
2022-07-29T00:21:41.933Z,14.10
2022-07-29T00:24:09.686Z,14.10
2022-07-29T00:26:37.147Z,14.10
2022-07-29T00:29:32.938Z,14.10
2022-07-29T00:31:53.753Z,14.00
2022-07-29T00:34:39.983Z,14.00
2022-07-29T00:37:07.874Z,14.00
2022-07-29T00:39:35.620Z,14.00
2022-07-29T00:42:06.927Z,14.00
2022-07-29T00:44:39.291Z,14.00
2022-07-29T00:47:07.826Z,13.90
2022-07-29T00:49:36.276Z,13.90
2022-07-29T00:52:08.060Z,13.90
2022-07-29T00:54:43.929Z,13.80
2022-07-29T00:57:13.462Z,13.80
2022-07-29T00:59:41.436Z,13.80
2022-07-29T01:02:09.119Z,13.80
2022-07-29T01:04:37.027Z,13.70
2022-07-29T01:07:05.460Z,13.70
2022-07-29T01:09:40.810Z,13.70
2022-07-29T01:12:26.863Z,13.60
2022-07-29T01:14:56.633Z,13.60
2022-07-29T01:17:33.648Z,13.60
2022-07-29T01:20:31.614Z,13.70
2022-07-29T01:23:08.527Z,13.70
2022-07-29T01:26:13.614Z,13.60
2022-07-29T01:29:26.082Z,13.60
2022-07-29T01:32:02.089Z,13.60
2022-07-29T01:34:32.756Z,13.60
2022-07-29T01:37:26.947Z,13.60
2022-07-29T01:39:57.591Z,13.50
2022-07-29T01:42:37.515Z,13.50
2022-07-29T01:45:13.709Z,13.50
2022-07-29T01:47:51.985Z,13.50
2022-07-29T01:50:22.550Z,13.50
2022-07-29T01:52:59.807Z,13.50
2022-07-29T01:55:32.495Z,13.50
2022-07-29T01:58:02.153Z,13.40
2022-07-29T02:00:33.042Z,13.40
2022-07-29T02:03:06.665Z,13.40
2022-07-29T02:05:35.681Z,13.40
2022-07-29T02:08:05.500Z,13.30
2022-07-29T02:10:35.776Z,13.30
2022-07-29T02:13:05.055Z,13.30
2022-07-29T02:15:35.470Z,13.30
2022-07-29T02:18:08.969Z,13.30
2022-07-29T02:20:39.047Z,13.30
2022-07-29T02:23:08.137Z,13.30
2022-07-29T02:25:38.060Z,13.20
2022-07-29T02:28:08.810Z,13.20
2022-07-29T02:30:43.068Z,13.20
2022-07-29T02:33:14.740Z,13.20
2022-07-29T02:35:44.234Z,13.10
2022-07-29T02:38:34.096Z,13.10
2022-07-29T02:41:14.797Z,13.10
2022-07-29T02:43:46.246Z,13.10
2022-07-29T02:46:29.253Z,13.00
2022-07-29T02:49:17.295Z,13.10
2022-07-29T02:51:48.437Z,13.00
2022-07-29T02:54:32.859Z,13.00
2022-07-29T02:57:08.027Z,13.00
2022-07-29T02:59:39.093Z,13.00
2022-07-29T03:02:08.344Z,13.00
2022-07-29T03:04:37.237Z,12.90
2022-07-29T03:07:06.248Z,13.00
2022-07-29T03:09:34.547Z,12.90
2022-07-29T03:12:05.261Z,12.90
2022-07-29T03:14:33.246Z,12.90
2022-07-29T03:17:01.286Z,13.00
2022-07-29T03:19:29.479Z,13.00
2022-07-29T03:21:58.816Z,13.00
2022-07-29T03:24:31.733Z,12.90
2022-07-29T03:26:59.911Z,12.90
2022-07-29T03:29:33.722Z,12.80
2022-07-29T03:32:07.309Z,12.90
2022-07-29T03:34:38.302Z,12.90
2022-07-29T03:37:07.403Z,12.90
2022-07-29T03:39:40.694Z,12.90
2022-07-29T03:42:12.246Z,12.90
2022-07-29T03:44:43.244Z,12.90
2022-07-29T03:47:12.210Z,12.80
2022-07-29T03:49:41.602Z,12.80
2022-07-29T03:52:10.148Z,12.80
2022-07-29T03:54:37.813Z,12.80
2022-07-29T03:57:08.286Z,12.90
2022-07-29T03:59:36.546Z,12.90
2022-07-29T04:02:05.894Z,12.90
2022-07-29T04:04:36.684Z,12.90
2022-07-29T04:07:05.015Z,12.90
2022-07-29T04:09:34.063Z,12.90
2022-07-29T04:12:04.349Z,12.80
2022-07-29T04:14:35.933Z,12.90
2022-07-29T04:17:05.152Z,12.90
2022-07-29T04:19:33.882Z,12.90
2022-07-29T04:22:02.215Z,13.00
2022-07-29T04:24:30.028Z,13.00
2022-07-29T04:26:57.736Z,13.00
2022-07-29T04:29:25.318Z,13.00
2022-07-29T04:31:53.010Z,13.10
2022-07-29T04:34:20.898Z,13.10
2022-07-29T04:36:48.732Z,13.00
2022-07-29T04:39:22.195Z,13.00
2022-07-29T04:41:52.403Z,13.00
2022-07-29T04:44:20.136Z,13.10
2022-07-29T04:46:47.843Z,13.10
2022-07-29T04:49:15.577Z,13.00
2022-07-29T04:51:44.455Z,13.10
2022-07-29T04:54:12.007Z,13.20
2022-07-29T04:56:39.561Z,13.20
2022-07-29T04:59:07.031Z,13.20
2022-07-29T05:01:34.990Z,13.10
2022-07-29T05:04:02.620Z,13.10
2022-07-29T05:06:31.131Z,13.20
2022-07-29T05:08:58.737Z,13.20
2022-07-29T05:11:30.241Z,13.20
2022-07-29T05:13:58.162Z,13.20
2022-07-29T05:16:25.797Z,13.30
2022-07-29T05:18:53.504Z,13.20
2022-07-29T05:21:21.048Z,13.30
2022-07-29T05:23:48.622Z,13.30
2022-07-29T05:26:16.114Z,13.40
2022-07-29T05:28:43.731Z,13.40
2022-07-29T05:31:11.276Z,13.40
2022-07-29T05:33:38.906Z,13.40
2022-07-29T05:36:09.618Z,13.40
2022-07-29T05:38:37.648Z,13.40
2022-07-29T05:41:06.405Z,13.40
2022-07-29T05:43:34.147Z,13.40
2022-07-29T05:46:01.735Z,13.40
2022-07-29T05:48:29.717Z,13.40
2022-07-29T05:50:57.373Z,13.50
2022-07-29T05:53:25.103Z,13.60
2022-07-29T05:55:53.401Z,13.60
2022-07-29T05:58:21.597Z,13.60
2022-07-29T06:00:49.080Z,13.60
2022-07-29T06:03:17.026Z,13.60
2022-07-29T06:05:44.502Z,13.60
2022-07-29T06:08:12.199Z,13.60
2022-07-29T06:10:39.889Z,13.60
2022-07-29T06:13:07.502Z,13.70
2022-07-29T06:15:35.328Z,13.70
2022-07-29T06:18:03.460Z,13.80
2022-07-29T06:20:32.659Z,13.80
2022-07-29T06:23:01.588Z,13.80
2022-07-29T06:25:33.492Z,13.80
2022-07-29T06:28:01.004Z,13.90
2022-07-29T06:30:29.894Z,13.90
2022-07-29T06:32:57.545Z,13.90
2022-07-29T06:35:39.385Z,13.90
2022-07-29T06:38:30.034Z,13.90
2022-07-29T06:41:04.174Z,14.00
2022-07-29T06:43:35.186Z,14.10
2022-07-29T06:46:08.228Z,14.20
2022-07-29T06:48:39.879Z,14.30
2022-07-29T06:51:07.861Z,14.30
2022-07-29T06:53:36.061Z,14.60
2022-07-29T06:56:05.710Z,14.60
2022-07-29T06:58:33.357Z,14.50
2022-07-29T07:01:04.489Z,14.40
2022-07-29T07:03:32.243Z,14.30
2022-07-29T07:06:00.252Z,14.40
2022-07-29T07:08:28.029Z,14.50
2022-07-29T07:10:56.375Z,14.40
2022-07-29T07:13:24.811Z,14.50
2022-07-29T07:15:53.128Z,14.60
2022-07-29T07:18:20.903Z,14.60
2022-07-29T07:20:48.814Z,14.70
2022-07-29T07:23:16.440Z,14.80
2022-07-29T07:25:44.100Z,14.80
2022-07-29T07:28:11.802Z,14.80
2022-07-29T07:30:39.411Z,14.90
2022-07-29T07:33:07.077Z,15.10
2022-07-29T07:35:34.811Z,15.10
2022-07-29T07:38:02.604Z,15.20
2022-07-29T07:40:30.114Z,15.10
2022-07-29T07:42:58.149Z,15.00
2022-07-29T07:45:25.888Z,14.90
2022-07-29T07:47:53.529Z,14.90
2022-07-29T07:50:21.117Z,15.00
2022-07-29T07:52:54.492Z,15.20
2022-07-29T07:55:22.476Z,15.20
2022-07-29T07:57:50.171Z,15.10
2022-07-29T08:00:18.906Z,15.10
2022-07-29T08:02:51.399Z,15.20
2022-07-29T08:05:19.609Z,15.20
2022-07-29T08:07:48.492Z,15.30
2022-07-29T08:10:37.799Z,15.40
2022-07-29T08:13:10.072Z,15.50
2022-07-29T08:15:37.718Z,15.60
2022-07-29T08:18:08.721Z,15.50
2022-07-29T08:20:39.482Z,15.40
2022-07-29T08:23:09.865Z,15.40
2022-07-29T08:25:40.115Z,15.60
2022-07-29T08:28:08.209Z,15.80
2022-07-29T08:30:36.191Z,15.80
2022-07-29T08:33:04.604Z,15.70
2022-07-29T08:35:35.181Z,15.60
2022-07-29T08:38:04.734Z,15.60
2022-07-29T08:40:33.727Z,15.80
2022-07-29T08:43:09.749Z,15.80
2022-07-29T08:45:50.115Z,16.00
2022-07-29T08:48:22.434Z,16.20
2022-07-29T08:50:54.568Z,16.40
2022-07-29T08:53:24.636Z,16.20
2022-07-29T08:55:56.802Z,16.20
2022-07-29T08:58:27.741Z,16.30
2022-07-29T09:00:58.343Z,16.50
2022-07-29T09:03:34.592Z,16.40
2022-07-29T09:06:04.177Z,16.40
2022-07-29T09:08:38.651Z,16.40
2022-07-29T09:11:10.054Z,16.20
2022-07-29T09:13:38.978Z,16.20
2022-07-29T09:16:09.585Z,16.20
2022-07-29T09:18:48.685Z,16.40
2022-07-29T09:21:38.595Z,16.60
2022-07-29T09:24:18.393Z,16.90
2022-07-29T09:26:49.701Z,17.00
2022-07-29T09:29:21.556Z,17.00
2022-07-29T09:31:56.621Z,17.10
2022-07-29T09:34:34.313Z,17.20
2022-07-29T09:37:08.748Z,17.20
2022-07-29T09:39:49.810Z,17.10
2022-07-29T09:42:34.705Z,16.90
2022-07-29T09:45:05.278Z,16.80
2022-07-29T09:47:55.315Z,16.70
2022-07-29T09:50:37.447Z,16.70
2022-07-29T09:53:05.288Z,16.80
2022-07-29T09:55:33.176Z,17.10
2022-07-29T09:58:29.427Z,17.30
2022-07-29T10:00:59.510Z,17.20
2022-07-29T10:03:27.535Z,17.40
2022-07-29T10:06:09.683Z,17.40
2022-07-29T10:08:38.182Z,17.70
2022-07-29T10:11:19.703Z,17.70
2022-07-29T10:13:49.257Z,17.70
2022-07-29T10:16:18.211Z,17.60
2022-07-29T10:18:48.145Z,17.60
2022-07-29T10:21:34.980Z,17.80
2022-07-29T10:24:03.762Z,17.70
2022-07-29T10:26:33.283Z,17.90
2022-07-29T10:29:03.359Z,17.90
2022-07-29T10:31:53.715Z,18.00
2022-07-29T10:35:05.690Z,17.90
2022-07-29T10:37:55.080Z,17.70
2022-07-29T10:41:08.641Z,17.60
2022-07-29T10:43:42.346Z,17.50
2022-07-29T10:46:13.060Z,17.60
2022-07-29T10:49:18.930Z,17.40
2022-07-29T10:52:13.509Z,17.40
2022-07-29T10:54:47.952Z,17.70
2022-07-29T10:57:16.256Z,17.90
2022-07-29T10:59:50.403Z,18.10
2022-07-29T11:02:46.525Z,18.20
2022-07-29T11:05:20.418Z,18.50
2022-07-29T11:08:21.064Z,18.40
2022-07-29T11:11:15.871Z,18.20
2022-07-29T11:13:46.562Z,18.00
2022-07-29T11:16:16.832Z,17.80
2022-07-29T11:19:16.356Z,17.70
2022-07-29T11:21:58.223Z,17.80
2022-07-29T11:24:32.391Z,18.20
2022-07-29T11:27:23.661Z,18.50
2022-07-29T11:29:58.731Z,18.50
2022-07-29T11:32:41.722Z,18.70
2022-07-29T11:35:17.573Z,18.90
2022-07-29T11:38:05.892Z,19.00
2022-07-29T11:40:33.633Z,19.10
2022-07-29T11:43:01.102Z,19.00
2022-07-29T11:45:47.866Z,19.10
2022-07-29T11:48:31.562Z,19.10
2022-07-29T11:51:01.386Z,19.30
2022-07-29T11:53:32.581Z,19.20
2022-07-29T11:56:02.809Z,19.20
2022-07-29T11:58:32.191Z,19.40
2022-07-29T12:01:04.206Z,19.60
2022-07-29T12:03:36.002Z,19.60
2022-07-29T12:07:03.607Z,19.40
2022-07-29T12:09:14.717Z,19.10
2022-07-29T12:11:44.988Z,19.00
2022-07-29T12:14:32.702Z,19.30
2022-07-29T12:17:02.192Z,19.20
2022-07-29T12:19:29.669Z,19.10
2022-07-29T12:22:02.180Z,19.00
2022-07-29T12:24:44.896Z,19.20
2022-07-29T12:27:18.267Z,19.50
2022-07-29T12:29:48.047Z,19.70
2022-07-29T12:32:19.866Z,19.80
2022-07-29T12:34:48.185Z,19.90
2022-07-29T12:37:16.532Z,19.70
2022-07-29T12:39:44.986Z,19.40
2022-07-29T12:42:18.727Z,19.30
2022-07-29T12:44:51.482Z,19.60
2022-07-29T12:47:20.487Z,19.70
2022-07-29T12:49:48.847Z,19.60
2022-07-29T12:52:34.728Z,19.30
2022-07-29T12:55:02.794Z,19.50
2022-07-29T12:57:30.632Z,19.30
2022-07-29T13:00:11.842Z,19.40
2022-07-29T13:02:40.981Z,19.70
2022-07-29T13:05:13.956Z,19.90
2022-07-29T13:07:55.291Z,19.70
2022-07-29T13:10:26.197Z,19.50
2022-07-29T13:13:11.474Z,19.40
2022-07-29T13:15:41.345Z,19.40
2022-07-29T13:18:33.954Z,19.50
2022-07-29T13:21:16.472Z,19.70
2022-07-29T13:23:44.463Z,19.70
2022-07-29T13:26:17.425Z,19.40
2022-07-29T13:28:45.161Z,19.30
2022-07-29T13:31:13.081Z,19.20
2022-07-29T13:33:40.660Z,19.30
2022-07-29T13:36:08.555Z,19.30
2022-07-29T13:38:36.092Z,19.50
2022-07-29T13:41:03.871Z,19.90
2022-07-29T13:43:31.411Z,19.70
2022-07-29T13:45:58.978Z,19.60
2022-07-29T13:48:26.698Z,19.70
2022-07-29T13:50:54.195Z,19.80
2022-07-29T13:53:26.984Z,19.90
2022-07-29T13:55:55.256Z,19.80
2022-07-29T13:58:23.014Z,19.50
2022-07-29T14:00:51.072Z,19.40
2022-07-29T14:03:18.657Z,19.30
2022-07-29T14:05:46.180Z,19.20
2022-07-29T14:08:13.734Z,19.20
2022-07-29T14:10:41.321Z,19.30
2022-07-29T14:13:25.406Z,19.40
2022-07-29T14:15:54.226Z,19.40
2022-07-29T14:18:22.647Z,19.20
2022-07-29T14:20:50.838Z,19.10
2022-07-29T14:23:20.159Z,19.10
2022-07-29T14:25:49.444Z,19.40
2022-07-29T14:28:17.302Z,19.80
2022-07-29T14:30:45.035Z,20.00
2022-07-29T14:33:12.777Z,20.30
2022-07-29T14:35:40.698Z,20.40
2022-07-29T14:38:08.134Z,20.50
2022-07-29T14:40:35.844Z,20.40
2022-07-29T14:43:04.096Z,20.40
2022-07-29T14:45:33.207Z,20.40
2022-07-29T14:48:01.578Z,20.40
2022-07-29T14:50:31.771Z,20.30
2022-07-29T14:53:01.131Z,20.10
2022-07-29T14:55:29.244Z,20.10
2022-07-29T14:58:07.709Z,20.40
2022-07-29T15:00:39.159Z,20.40
2022-07-29T15:03:11.578Z,20.20
2022-07-29T15:05:40.309Z,20.00
2022-07-29T15:08:09.316Z,20.10
2022-07-29T15:10:37.312Z,20.30
2022-07-29T15:13:04.838Z,20.40
2022-07-29T15:15:32.336Z,20.60
2022-07-29T15:17:59.819Z,20.80
2022-07-29T15:20:28.348Z,20.80
2022-07-29T15:22:57.344Z,20.80
2022-07-29T15:25:25.945Z,20.60
2022-07-29T15:28:00.972Z,20.50
2022-07-29T15:30:33.203Z,20.70
2022-07-29T15:33:04.243Z,20.90
2022-07-29T15:35:32.128Z,21.00
2022-07-29T15:37:59.846Z,20.90
2022-07-29T15:40:27.646Z,20.70
2022-07-29T15:42:55.468Z,20.60
2022-07-29T15:45:23.173Z,20.40
2022-07-29T15:47:50.611Z,20.50
2022-07-29T15:50:18.983Z,20.50
2022-07-29T15:52:47.172Z,20.40
2022-07-29T15:55:15.961Z,20.40
2022-07-29T15:57:43.777Z,20.30
2022-07-29T16:00:12.061Z,20.30
2022-07-29T16:02:39.876Z,20.20
2022-07-29T16:05:09.414Z,20.20
2022-07-29T16:07:37.974Z,20.20
2022-07-29T16:10:08.086Z,20.10
2022-07-29T16:12:35.739Z,20.00
2022-07-29T16:15:09.029Z,19.70
2022-07-29T16:17:38.257Z,19.60
2022-07-29T16:20:06.838Z,19.40
2022-07-29T16:22:34.493Z,19.30
2022-07-29T16:25:01.959Z,19.20
2022-07-29T16:27:35.455Z,19.10
2022-07-29T16:30:09.919Z,19.00
2022-07-29T16:32:37.912Z,18.90
2022-07-29T16:35:06.039Z,18.80
2022-07-29T16:37:37.477Z,18.70
2022-07-29T16:40:07.164Z,18.60
2022-07-29T16:42:50.720Z,18.50
2022-07-29T16:45:21.442Z,18.50
2022-07-29T16:47:49.496Z,18.50
2022-07-29T16:50:17.772Z,18.40
2022-07-29T16:52:45.322Z,18.50
2022-07-29T16:55:13.044Z,18.30
2022-07-29T16:57:42.068Z,18.20
2022-07-29T17:00:10.499Z,18.30
2022-07-29T17:02:38.977Z,18.30
2022-07-29T17:05:08.150Z,18.30
2022-07-29T17:07:35.707Z,18.20
2022-07-29T17:10:05.390Z,18.20
2022-07-29T17:12:35.198Z,18.10
2022-07-29T17:15:06.474Z,18.10
2022-07-29T17:17:39.525Z,18.10
2022-07-29T17:20:22.202Z,18.10
2022-07-29T17:22:49.677Z,17.90
2022-07-29T17:25:21.093Z,17.90
2022-07-29T17:27:50.931Z,17.80
2022-07-29T17:30:18.690Z,17.80
2022-07-29T17:32:46.391Z,17.80
2022-07-29T17:35:32.906Z,17.80
2022-07-29T17:38:00.509Z,17.70
2022-07-29T17:40:28.121Z,17.70
2022-07-29T17:42:55.815Z,17.70
2022-07-29T17:45:23.236Z,17.60
2022-07-29T17:47:51.301Z,17.60
2022-07-29T17:50:18.861Z,17.50
2022-07-29T17:52:46.832Z,17.50
2022-07-29T17:55:14.499Z,17.40
2022-07-29T17:57:42.717Z,17.40
2022-07-29T18:00:10.519Z,17.30
2022-07-29T18:02:38.446Z,17.30
2022-07-29T18:05:06.912Z,17.20
2022-07-29T18:07:34.470Z,17.20
2022-07-29T18:10:02.663Z,17.10
2022-07-29T18:12:31.233Z,17.00
2022-07-29T18:14:58.915Z,17.00
2022-07-29T18:17:49.433Z,17.00
2022-07-29T18:20:17.482Z,16.90
2022-07-29T18:22:46.367Z,16.80
2022-07-29T18:25:14.234Z,16.80
2022-07-29T18:27:41.903Z,16.70
2022-07-29T18:30:12.252Z,16.60
2022-07-29T18:32:40.483Z,16.60
2022-07-29T18:35:08.751Z,16.50
2022-07-29T18:38:00.701Z,16.40
2022-07-29T18:40:26.282Z,16.40
2022-07-29T18:42:58.281Z,16.40
2022-07-29T18:45:28.269Z,16.30
2022-07-29T18:47:57.852Z,16.30
2022-07-29T18:50:29.370Z,16.20
2022-07-29T18:53:01.501Z,16.10
2022-07-29T18:55:29.131Z,16.10
2022-07-29T18:57:57.522Z,16.10
2022-07-29T19:00:26.545Z,16.00
2022-07-29T19:02:54.425Z,15.90
2022-07-29T19:05:23.379Z,15.90
2022-07-29T19:07:51.246Z,15.80
2022-07-29T19:10:20.408Z,15.70
2022-07-29T19:12:48.132Z,15.70
2022-07-29T19:15:19.951Z,15.60
2022-07-29T19:17:49.025Z,15.50
2022-07-29T19:20:16.842Z,15.50
2022-07-29T19:22:44.822Z,15.40
2022-07-29T19:25:12.607Z,15.30
2022-07-29T19:27:46.051Z,15.30
2022-07-29T19:30:16.755Z,15.30
2022-07-29T19:32:44.252Z,15.20
2022-07-29T19:35:30.536Z,15.10
2022-07-29T19:38:00.875Z,15.10
2022-07-29T19:40:33.729Z,15.00
2022-07-29T19:43:03.693Z,15.00
2022-07-29T19:45:55.554Z,15.00
2022-07-29T19:48:24.537Z,14.90
2022-07-29T19:50:52.020Z,14.90
2022-07-29T19:53:19.621Z,14.90
2022-07-29T19:55:47.182Z,14.80
2022-07-29T19:58:14.994Z,14.80
2022-07-29T20:00:42.991Z,14.70
2022-07-29T20:03:11.363Z,14.60
2022-07-29T20:05:38.973Z,14.60
2022-07-29T20:08:06.648Z,14.60
2022-07-29T20:10:34.397Z,14.50
2022-07-29T20:13:02.097Z,14.50
2022-07-29T20:15:29.758Z,14.50
2022-07-29T20:17:57.562Z,14.40
2022-07-29T20:20:25.676Z,14.40
2022-07-29T20:22:53.937Z,14.40
2022-07-29T20:25:21.832Z,14.40
2022-07-29T20:27:52.571Z,14.30
2022-07-29T20:30:21.971Z,14.30
2022-07-29T20:32:50.156Z,14.30
2022-07-29T20:35:19.862Z,14.20
2022-07-29T20:37:56.168Z,14.10
2022-07-29T20:40:25.923Z,14.10
2022-07-29T20:42:55.279Z,14.10
2022-07-29T20:45:23.903Z,14.00
2022-07-29T20:47:52.412Z,14.00
2022-07-29T20:50:23.744Z,13.90
2022-07-29T20:52:52.799Z,13.90
2022-07-29T20:55:21.397Z,13.90
2022-07-29T20:57:49.066Z,13.80
2022-07-29T21:00:16.751Z,13.80
2022-07-29T21:02:44.472Z,13.80
2022-07-29T21:05:12.185Z,13.80
2022-07-29T21:07:40.026Z,13.80
2022-07-29T21:10:07.909Z,13.70
2022-07-29T21:12:35.533Z,13.70
2022-07-29T21:15:08.839Z,13.70
2022-07-29T21:17:39.007Z,13.70
2022-07-29T21:20:08.817Z,13.60
2022-07-29T21:22:37.868Z,13.60
2022-07-29T21:25:06.736Z,13.50
2022-07-29T21:27:52.681Z,13.40
2022-07-29T21:30:20.837Z,13.40
2022-07-29T21:32:48.322Z,13.40
2022-07-29T21:35:35.833Z,13.40
2022-07-29T21:38:03.629Z,13.50
2022-07-29T21:40:31.218Z,13.40
2022-07-29T21:42:58.824Z,13.40
2022-07-29T21:45:27.121Z,13.30
2022-07-29T21:47:54.760Z,13.30
2022-07-29T21:50:22.334Z,13.40
2022-07-29T21:52:49.856Z,13.30
2022-07-29T21:55:19.277Z,13.30
2022-07-29T21:57:46.999Z,13.30
2022-07-29T22:00:17.598Z,13.30
2022-07-29T22:02:45.767Z,13.20
2022-07-29T22:05:14.399Z,13.20
2022-07-29T22:07:56.496Z,13.10
2022-07-29T22:10:30.034Z,13.10
2022-07-29T22:12:59.446Z,13.10
2022-07-29T22:15:28.137Z,13.10
2022-07-29T22:17:56.033Z,13.00
2022-07-29T22:20:24.188Z,13.00
2022-07-29T22:22:51.890Z,13.10
2022-07-29T22:25:19.643Z,13.10
2022-07-29T22:27:47.309Z,13.00
2022-07-29T22:30:15.543Z,13.00
2022-07-29T22:32:43.713Z,13.00
2022-07-29T22:35:11.626Z,13.00
2022-07-29T22:37:39.447Z,12.90
2022-07-29T22:40:07.803Z,12.90
2022-07-29T22:42:35.783Z,12.90
2022-07-29T22:45:04.434Z,12.80
2022-07-29T22:47:46.703Z,12.80
2022-07-29T22:50:17.460Z,12.80
2022-07-29T22:52:45.868Z,12.80
2022-07-29T22:55:14.333Z,12.80
2022-07-29T22:57:42.271Z,12.70
2022-07-29T23:00:10.849Z,12.70
2022-07-29T23:02:38.438Z,12.70
2022-07-29T23:05:06.756Z,12.70
2022-07-29T23:07:34.276Z,12.70
2022-07-29T23:10:02.202Z,12.70
2022-07-29T23:12:29.705Z,12.70
2022-07-29T23:14:57.358Z,12.60
2022-07-29T23:17:24.818Z,12.60
2022-07-29T23:19:52.526Z,12.60
2022-07-29T23:22:19.987Z,12.60
2022-07-29T23:24:48.218Z,12.60
2022-07-29T23:27:15.886Z,12.60
2022-07-29T23:29:43.638Z,12.60
2022-07-29T23:32:11.105Z,12.50
2022-07-29T23:34:38.720Z,12.60
2022-07-29T23:37:06.454Z,12.50
2022-07-29T23:39:36.845Z,12.50
2022-07-29T23:42:05.079Z,12.50
2022-07-29T23:44:32.899Z,12.50
2022-07-29T23:47:00.637Z,12.40
2022-07-29T23:49:28.443Z,12.40
2022-07-29T23:51:56.036Z,12.30
2022-07-29T23:54:25.991Z,12.30
2022-07-29T23:56:53.524Z,12.30
2022-07-29T23:59:21.096Z,12.20
